sensor_id;sensor_type;location;lat;lon;timestamp;pressure;altitude;pressure_sealevel;temperature
72054;BMP280;59918;51.280;7.950;2023-11-21T01:25:13;97423.00;;;8.35
72054;BMP280;59918;51.280;7.950;2023-11-21T01:27:38;97428.91;;;8.36
72054;BMP280;59918;51.280;7.950;2023-11-21T01:30:03;97429.13;;;8.34
72054;BMP280;59918;51.280;7.950;2023-11-21T01:32:29;97434.66;;;8.31
72054;BMP280;59918;51.280;7.950;2023-11-21T01:34:54;97436.63;;;8.29
72054;BMP280;59918;51.280;7.950;2023-11-21T01:37:19;97432.84;;;8.32
72054;BMP280;59918;51.280;7.950;2023-11-21T01:39:45;97441.13;;;8.34
72054;BMP280;59918;51.280;7.950;2023-11-21T01:42:10;97444.88;;;8.37
72054;BMP280;59918;51.280;7.950;2023-11-21T01:44:35;97436.03;;;8.40
72054;BMP280;59918;51.280;7.950;2023-11-21T01:47:01;97442.72;;;8.41
72054;BMP280;59918;51.280;7.950;2023-11-21T01:49:26;97442.34;;;8.44
72054;BMP280;59918;51.280;7.950;2023-11-21T01:51:52;97438.97;;;8.43
72054;BMP280;59918;51.280;7.950;2023-11-21T01:54:18;97432.88;;;8.44
72054;BMP280;59918;51.280;7.950;2023-11-21T03:25:46;97492.75;;;8.69
72054;BMP280;59918;51.280;7.950;2023-11-21T03:28:12;97490.41;;;8.68
72054;BMP280;59918;51.280;7.950;2023-11-21T03:30:37;97491.97;;;8.69
72054;BMP280;59918;51.280;7.950;2023-11-21T03:33:02;97491.97;;;8.69
72054;BMP280;59918;51.280;7.950;2023-11-21T03:35:27;97492.97;;;8.68
72054;BMP280;59918;51.280;7.950;2023-11-21T03:37:53;97500.66;;;8.68
72054;BMP280;59918;51.280;7.950;2023-11-21T03:40:18;97508.53;;;8.66
72054;BMP280;59918;51.280;7.950;2023-11-21T03:42:43;97504.38;;;8.65
72054;BMP280;59918;51.280;7.950;2023-11-21T03:45:09;97516.03;;;8.68
72054;BMP280;59918;51.280;7.950;2023-11-21T03:47:34;97509.91;;;8.69
72054;BMP280;59918;51.280;7.950;2023-11-21T03:49:59;97518.78;;;8.66
72054;BMP280;59918;51.280;7.950;2023-11-21T03:52:27;97520.16;;;8.69
72054;BMP280;59918;51.280;7.950;2023-11-21T03:54:52;97526.66;;;8.71
72054;BMP280;59918;51.280;7.950;2023-11-21T03:57:18;97527.47;;;8.72
72054;BMP280;59918;51.280;7.950;2023-11-21T03:59:43;97523.72;;;8.74
72054;BMP280;59918;51.280;7.950;2023-11-21T04:02:09;97529.63;;;8.74
72054;BMP280;59918;51.280;7.950;2023-11-21T04:04:35;97524.50;;;8.74
72054;BMP280;59918;51.280;7.950;2023-11-21T04:07:00;97531.81;;;8.77
72054;BMP280;59918;51.280;7.950;2023-11-21T04:09:25;97540.09;;;8.79
72054;BMP280;59918;51.280;7.950;2023-11-21T04:11:52;97534.72;;;8.81
72054;BMP280;59918;51.280;7.950;2023-11-21T04:14:18;97544.03;;;8.82
72054;BMP280;59918;51.280;7.950;2023-11-21T04:16:43;97547.38;;;8.82
72054;BMP280;59918;51.280;7.950;2023-11-21T04:19:08;97549.94;;;8.82
72054;BMP280;59918;51.280;7.950;2023-11-21T04:21:34;97558.03;;;8.86
72054;BMP280;59918;51.280;7.950;2023-11-21T04:23:59;97557.81;;;8.87
72054;BMP280;59918;51.280;7.950;2023-11-21T04:26:24;97561.75;;;8.90
72054;BMP280;59918;51.280;7.950;2023-11-21T04:28:49;97561.75;;;8.90
72054;BMP280;59918;51.280;7.950;2023-11-21T04:31:15;97563.13;;;8.92
72054;BMP280;59918;51.280;7.950;2023-11-21T04:33:40;97566.28;;;8.94
72054;BMP280;59918;51.280;7.950;2023-11-21T04:36:05;97573.19;;;8.94
72054;BMP280;59918;51.280;7.950;2023-11-21T04:38:31;97567.28;;;8.93
72054;BMP280;59918;51.280;7.950;2023-11-21T04:40:56;97576.53;;;8.94
72054;BMP280;59918;51.280;7.950;2023-11-21T04:43:21;97581.47;;;8.96
72054;BMP280;59918;51.280;7.950;2023-11-21T04:45:46;97578.72;;;8.97
72054;BMP280;59918;51.280;7.950;2023-11-21T04:48:12;97581.28;;;8.97
72054;BMP280;59918;51.280;7.950;2023-11-21T04:50:37;97581.09;;;8.99
72054;BMP280;59918;51.280;7.950;2023-11-21T04:53:02;97587.00;;;8.99
72054;BMP280;59918;51.280;7.950;2023-11-21T04:55:27;97590.16;;;9.01
72054;BMP280;59918;51.280;7.950;2023-11-21T04:57:53;97584.25;;;9.01
72054;BMP280;59918;51.280;7.950;2023-11-21T05:00:18;97590.94;;;9.02
72054;BMP280;59918;51.280;7.950;2023-11-21T05:02:44;97585.03;;;9.01
72054;BMP280;59918;51.280;7.950;2023-11-21T05:05:09;97589.97;;;9.03
72054;BMP280;59918;51.280;7.950;2023-11-21T05:07:34;97588.19;;;9.03
72054;BMP280;59918;51.280;7.950;2023-11-21T05:10:00;97594.88;;;9.04
72054;BMP280;59918;51.280;7.950;2023-11-21T05:12:25;97591.34;;;9.05
72054;BMP280;59918;51.280;7.950;2023-11-21T05:14:51;97594.69;;;9.06
72054;BMP280;59918;51.280;7.950;2023-11-21T05:17:16;97595.47;;;9.06
72054;BMP280;59918;51.280;7.950;2023-11-21T05:19:41;97591.94;;;9.07
72054;BMP280;59918;51.280;7.950;2023-11-21T05:22:06;97591.34;;;9.05
72054;BMP280;59918;51.280;7.950;2023-11-21T05:24:32;97588.78;;;9.05
72054;BMP280;59918;51.280;7.950;2023-11-21T05:26:57;97592.31;;;9.04
72054;BMP280;59918;51.280;7.950;2023-11-21T05:29:22;97592.91;;;9.06
72054;BMP280;59918;51.280;7.950;2023-11-21T05:31:47;97598.84;;;9.07
72054;BMP280;59918;51.280;7.950;2023-11-21T05:34:13;97599.63;;;9.07
72054;BMP280;59918;51.280;7.950;2023-11-21T05:36:38;97598.03;;;9.06
72054;BMP280;59918;51.280;7.950;2023-11-21T05:39:03;97599.63;;;9.07
72054;BMP280;59918;51.280;7.950;2023-11-21T05:41:28;97608.88;;;9.08
72054;BMP280;59918;51.280;7.950;2023-11-21T05:43:53;97602.00;;;9.09
72054;BMP280;59918;51.280;7.950;2023-11-21T05:46:19;97608.88;;;9.08
72054;BMP280;59918;51.280;7.950;2023-11-21T05:48:44;97618.19;;;9.09
72054;BMP280;59918;51.280;7.950;2023-11-21T05:51:09;97620.75;;;9.09
72054;BMP280;59918;51.280;7.950;2023-11-21T05:53:35;97626.84;;;9.08
72054;BMP280;59918;51.280;7.950;2023-11-21T05:56:00;97629.41;;;9.08
72054;BMP280;59918;51.280;7.950;2023-11-21T05:58:25;97636.13;;;9.09
72054;BMP280;59918;51.280;7.950;2023-11-21T06:00:50;97641.25;;;9.09
72054;BMP280;59918;51.280;7.950;2023-11-21T06:03:16;97643.81;;;9.09
72054;BMP280;59918;51.280;7.950;2023-11-21T06:05:41;97642.22;;;9.08
72054;BMP280;59918;51.280;7.950;2023-11-21T06:08:06;97648.19;;;9.09
72054;BMP280;59918;51.280;7.950;2023-11-21T06:10:32;97645.81;;;9.07
72054;BMP280;59918;51.280;7.950;2023-11-21T06:12:57;97645.03;;;9.07
72054;BMP280;59918;51.280;7.950;2023-11-21T06:15:22;97652.72;;;9.07
72054;BMP280;59918;51.280;7.950;2023-11-21T06:17:48;97657.03;;;9.06
72054;BMP280;59918;51.280;7.950;2023-11-21T06:20:13;97663.56;;;9.09
72054;BMP280;59918;51.280;7.950;2023-11-21T06:22:39;97664.53;;;9.08
72054;BMP280;59918;51.280;7.950;2023-11-21T06:25:05;97666.50;;;9.06
72054;BMP280;59918;51.280;7.950;2023-11-21T06:27:32;97669.25;;;9.04
72054;BMP280;59918;51.280;7.950;2023-11-21T06:29:57;97673.00;;;9.08
72054;BMP280;59918;51.280;7.950;2023-11-21T06:32:22;97673.00;;;9.08
72054;BMP280;59918;51.280;7.950;2023-11-21T06:34:48;97680.13;;;9.06
72054;BMP280;59918;51.280;7.950;2023-11-21T06:37:13;97676.59;;;9.07
72054;BMP280;59918;51.280;7.950;2023-11-21T06:39:38;97679.34;;;9.06
72054;BMP280;59918;51.280;7.950;2023-11-21T06:42:03;97680.94;;;9.07
72054;BMP280;59918;51.280;7.950;2023-11-21T06:44:29;97676.59;;;9.07
72054;BMP280;59918;51.280;7.950;2023-11-21T06:46:54;97678.16;;;9.08
72054;BMP280;59918;51.280;7.950;2023-11-21T06:49:19;97683.50;;;9.07
72054;BMP280;59918;51.280;7.950;2023-11-21T06:51:44;97691.97;;;9.07
72054;BMP280;59918;51.280;7.950;2023-11-21T06:54:10;97688.22;;;9.03
72054;BMP280;59918;51.280;7.950;2023-11-21T06:56:35;97697.47;;;9.04
72054;BMP280;59918;51.280;7.950;2023-11-21T06:59:00;97699.25;;;9.04
72054;BMP280;59918;51.280;7.950;2023-11-21T07:01:25;97701.63;;;9.05
72054;BMP280;59918;51.280;7.950;2023-11-21T07:03:50;97701.44;;;9.07
72054;BMP280;59918;51.280;7.950;2023-11-21T07:06:16;97703.22;;;9.06
72054;BMP280;59918;51.280;7.950;2023-11-21T07:08:41;97711.50;;;9.08
72054;BMP280;59918;51.280;7.950;2023-11-21T07:11:06;97709.75;;;9.09
72054;BMP280;59918;51.280;7.950;2023-11-21T07:13:31;97705.97;;;9.11
72054;BMP280;59918;51.280;7.950;2023-11-21T07:15:59;97716.66;;;9.14
72054;BMP280;59918;51.280;7.950;2023-11-21T07:18:24;97722.16;;;9.18
72054;BMP280;59918;51.280;7.950;2023-11-21T07:20:49;97727.88;;;9.20
72054;BMP280;59918;51.280;7.950;2023-11-21T07:23:15;97732.81;;;9.21
72054;BMP280;59918;51.280;7.950;2023-11-21T07:25:40;97744.47;;;9.24
72054;BMP280;59918;51.280;7.950;2023-11-21T07:28:05;97751.78;;;9.27
72054;BMP280;59918;51.280;7.950;2023-11-21T07:30:30;97747.84;;;9.31
72054;BMP280;59918;51.280;7.950;2023-11-21T07:32:56;97744.47;;;9.30
72054;BMP280;59918;51.280;7.950;2023-11-21T07:35:21;97751.78;;;9.33
72054;BMP280;59918;51.280;7.950;2023-11-21T07:37:46;97752.19;;;9.37
72054;BMP280;59918;51.280;7.950;2023-11-21T07:40:12;97752.56;;;9.40
72054;BMP280;59918;51.280;7.950;2023-11-21T07:42:37;97754.53;;;9.45
72054;BMP280;59918;51.280;7.950;2023-11-21T07:45:04;97767.00;;;9.47
72054;BMP280;59918;51.280;7.950;2023-11-21T07:47:30;97768.19;;;9.51
72054;BMP280;59918;51.280;7.950;2023-11-21T07:49:55;97766.22;;;9.53
72054;BMP280;59918;51.280;7.950;2023-11-21T07:52:20;97768.56;;;9.55
72054;BMP280;59918;51.280;7.950;2023-11-21T07:54:45;97780.41;;;9.56
72054;BMP280;59918;51.280;7.950;2023-11-21T07:57:10;97792.47;;;9.55
72054;BMP280;59918;51.280;7.950;2023-11-21T07:59:36;97788.91;;;9.56
72054;BMP280;59918;51.280;7.950;2023-11-21T08:02:01;97784.78;;;9.55
72054;BMP280;59918;51.280;7.950;2023-11-21T08:04:26;97790.69;;;9.56
72054;BMP280;59918;51.280;7.950;2023-11-21T08:06:51;97795.63;;;9.57
72054;BMP280;59918;51.280;7.950;2023-11-21T08:09:17;97797.00;;;9.60
72054;BMP280;59918;51.280;7.950;2023-11-21T08:11:42;97800.94;;;9.62
72054;BMP280;59918;51.280;7.950;2023-11-21T08:14:07;97800.34;;;9.67
72054;BMP280;59918;51.280;7.950;2023-11-21T08:16:32;97798.97;;;9.71
72054;BMP280;59918;51.280;7.950;2023-11-21T08:18:58;97804.31;;;9.76
72054;BMP280;59918;51.280;7.950;2023-11-21T08:21:23;97795.03;;;9.81
72054;BMP280;59918;51.280;7.950;2023-11-21T08:23:48;97799.38;;;9.87
72054;BMP280;59918;51.280;7.950;2023-11-21T08:26:16;97796.81;;;9.93
72054;BMP280;59918;51.280;7.950;2023-11-21T08:28:41;97793.84;;;9.96
72054;BMP280;59918;51.280;7.950;2023-11-21T08:31:06;97797.59;;;10.00
72054;BMP280;59918;51.280;7.950;2023-11-21T08:33:31;97797.00;;;10.05
72054;BMP280;59918;51.280;7.950;2023-11-21T08:35:57;97807.47;;;10.10
72054;BMP280;59918;51.280;7.950;2023-11-21T08:38:22;97805.28;;;10.13
72054;BMP280;59918;51.280;7.950;2023-11-21T08:40:47;97812.03;;;10.14
72054;BMP280;59918;51.280;7.950;2023-11-21T08:43:12;97811.78;;;10.16
72054;BMP280;59918;51.280;7.950;2023-11-21T08:45:38;97813.97;;;10.19
72054;BMP280;59918;51.280;7.950;2023-11-21T08:48:03;97814.56;;;10.20
72054;BMP280;59918;51.280;7.950;2023-11-21T08:50:29;97819.72;;;10.20
72054;BMP280;59918;51.280;7.950;2023-11-21T08:52:54;97830.38;;;10.18
72054;BMP280;59918;51.280;7.950;2023-11-21T08:55:19;97828.81;;;10.17
72054;BMP280;59918;51.280;7.950;2023-11-21T08:57:45;97834.34;;;10.14
72054;BMP280;59918;51.280;7.950;2023-11-21T09:00:10;97838.88;;;10.12
72054;BMP280;59918;51.280;7.950;2023-11-21T09:02:36;97840.84;;;10.10
72054;BMP280;59918;51.280;7.950;2023-11-21T09:05:01;97840.84;;;10.10
72054;BMP280;59918;51.280;7.950;2023-11-21T09:07:26;97849.38;;;10.10
72054;BMP280;59918;51.280;7.950;2023-11-21T09:09:51;97854.28;;;10.12
72054;BMP280;59918;51.280;7.950;2023-11-21T09:12:17;97860.25;;;10.12
72054;BMP280;59918;51.280;7.950;2023-11-21T09:14:42;97861.41;;;10.10
72054;BMP280;59918;51.280;7.950;2023-11-21T09:17:09;97861.41;;;10.10
72054;BMP280;59918;51.280;7.950;2023-11-21T09:19:34;97865.59;;;10.11
72054;BMP280;59918;51.280;7.950;2023-11-21T09:22:00;97870.13;;;10.15
72054;BMP280;59918;51.280;7.950;2023-11-21T09:24:25;97875.84;;;10.17
72054;BMP280;59918;51.280;7.950;2023-11-21T09:26:50;97875.03;;;10.23
72054;BMP280;59918;51.280;7.950;2023-11-21T09:29:15;97877.22;;;10.26
72054;BMP280;59918;51.280;7.950;2023-11-21T09:31:41;97887.28;;;10.27
72054;BMP280;59918;51.280;7.950;2023-11-21T09:34:06;97887.69;;;10.31
72054;BMP280;59918;51.280;7.950;2023-11-21T09:36:31;97896.59;;;10.35
72054;BMP280;59918;51.280;7.950;2023-11-21T09:38:56;97893.41;;;10.39
72054;BMP280;59918;51.280;7.950;2023-11-21T09:41:32;97894.38;;;10.45
72054;BMP280;59918;51.280;7.950;2023-11-21T09:43:59;97899.34;;;10.46
72054;BMP280;59918;51.280;7.950;2023-11-21T09:46:27;97894.59;;;10.50
72054;BMP280;59918;51.280;7.950;2023-11-21T11:20:24;97924.03;;;10.60
72054;BMP280;59918;51.280;7.950;2023-11-21T11:23:04;97925.19;;;10.70
72054;BMP280;59918;51.280;7.950;2023-11-21T11:28:44;97927.91;;;10.94
72054;BMP280;59918;51.280;7.950;2023-11-21T11:31:25;97937.41;;;11.00
72054;BMP280;59918;51.280;7.950;2023-11-21T11:34:11;97940.56;;;11.02
72054;BMP280;59918;51.280;7.950;2023-11-21T11:36:53;97941.97;;;10.98
72054;BMP280;59918;51.280;7.950;2023-11-21T11:42:03;97939.22;;;10.87
72054;BMP280;59918;51.280;7.950;2023-11-21T11:47:13;97942.00;;;10.73
72054;BMP280;59918;51.280;7.950;2023-11-21T11:49:55;97942.22;;;10.65
72054;BMP280;59918;51.280;7.950;2023-11-21T11:52:51;97944.22;;;10.56
72054;BMP280;59918;51.280;7.950;2023-11-21T11:55:18;97942.84;;;10.54
72054;BMP280;59918;51.280;7.950;2023-11-21T11:57:45;97948.56;;;10.56
72054;BMP280;59918;51.280;7.950;2023-11-21T12:00:21;97948.56;;;10.56
72054;BMP280;59918;51.280;7.950;2023-11-21T12:02:49;97948.16;;;10.53
72054;BMP280;59918;51.280;7.950;2023-11-21T12:05:16;97957.09;;;10.50
72054;BMP280;59918;51.280;7.950;2023-11-21T12:07:52;97955.47;;;10.49
72054;BMP280;59918;51.280;7.950;2023-11-21T12:10:20;97958.06;;;10.49
72054;BMP280;59918;51.280;7.950;2023-11-21T12:12:49;97960.63;;;10.49
72054;BMP280;59918;51.280;7.950;2023-11-21T12:15:15;97966.59;;;10.50
72054;BMP280;59918;51.280;7.950;2023-11-21T12:17:42;97959.47;;;10.52
72054;BMP280;59918;51.280;7.950;2023-11-21T12:20:08;97962.03;;;10.52
72054;BMP280;59918;51.280;7.950;2023-11-21T12:22:34;97962.41;;;10.55
72054;BMP280;59918;51.280;7.950;2023-11-21T12:25:00;97960.22;;;10.58
72054;BMP280;59918;51.280;7.950;2023-11-21T12:27:25;97961.59;;;10.61
72054;BMP280;59918;51.280;7.950;2023-11-21T12:29:50;97962.19;;;10.63
72054;BMP280;59918;51.280;7.950;2023-11-21T12:32:15;97965.00;;;10.61
72054;BMP280;59918;51.280;7.950;2023-11-21T12:34:41;97965.00;;;10.61
72054;BMP280;59918;51.280;7.950;2023-11-21T12:37:06;97979.25;;;10.57
72054;BMP280;59918;51.280;7.950;2023-11-21T12:39:31;97979.44;;;10.56
72054;BMP280;59918;51.280;7.950;2023-11-21T12:41:57;97985.53;;;10.55
72054;BMP280;59918;51.280;7.950;2023-11-21T12:44:22;97984.38;;;10.51
72054;BMP280;59918;51.280;7.950;2023-11-21T12:46:47;97980.41;;;10.49
72054;BMP280;59918;51.280;7.950;2023-11-21T12:49:13;97988.31;;;10.47
72054;BMP280;59918;51.280;7.950;2023-11-21T12:51:38;97992.47;;;10.48
72054;BMP280;59918;51.280;7.950;2023-11-21T12:54:03;97992.47;;;10.48
72054;BMP280;59918;51.280;7.950;2023-11-21T12:56:29;97994.28;;;10.48
72054;BMP280;59918;51.280;7.950;2023-11-21T12:58:54;97993.28;;;10.49
72054;BMP280;59918;51.280;7.950;2023-11-21T13:01:19;97989.31;;;10.46
72054;BMP280;59918;51.280;7.950;2023-11-21T13:03:48;97993.88;;;10.44
72054;BMP280;59918;51.280;7.950;2023-11-21T13:06:15;97991.91;;;10.40
72054;BMP280;59918;51.280;7.950;2023-11-21T13:08:40;97998.22;;;10.37
72054;BMP280;59918;51.280;7.950;2023-11-21T13:11:06;97995.63;;;10.37
72054;BMP280;59918;51.280;7.950;2023-11-21T13:13:31;98000.19;;;10.35
72054;BMP280;59918;51.280;7.950;2023-11-21T13:16:01;98001.19;;;10.34
72054;BMP280;59918;51.280;7.950;2023-11-21T13:18:27;97997.44;;;10.30
72054;BMP280;59918;51.280;7.950;2023-11-21T13:20:54;98007.13;;;10.28
72054;BMP280;59918;51.280;7.950;2023-11-21T13:23:20;98005.75;;;10.26
72054;BMP280;59918;51.280;7.950;2023-11-21T13:25:45;98013.03;;;10.22
72054;BMP280;59918;51.280;7.950;2023-11-21T13:28:11;98012.63;;;10.19
72054;BMP280;59918;51.280;7.950;2023-11-21T13:30:37;98015.81;;;10.15
72054;BMP280;59918;51.280;7.950;2023-11-21T13:33:03;98021.53;;;10.10
72054;BMP280;59918;51.280;7.950;2023-11-21T13:35:28;98026.63;;;10.04
72054;BMP280;59918;51.280;7.950;2023-11-21T13:37:54;98024.66;;;9.99
72054;BMP280;59918;51.280;7.950;2023-11-21T13:40:20;98031.78;;;9.97
72054;BMP280;59918;51.280;7.950;2023-11-21T13:42:45;98047.38;;;9.96
72054;BMP280;59918;51.280;7.950;2023-11-21T13:45:11;98049.94;;;9.96
72054;BMP280;59918;51.280;7.950;2023-11-21T13:47:36;98047.78;;;9.93
72054;BMP280;59918;51.280;7.950;2023-11-21T13:50:02;98054.88;;;9.91
72054;BMP280;59918;51.280;7.950;2023-11-21T13:52:27;98059.94;;;9.84
72054;BMP280;59918;51.280;7.950;2023-11-21T13:54:52;98063.09;;;9.80
72054;BMP280;59918;51.280;7.950;2023-11-21T13:57:17;98064.47;;;9.76
72054;BMP280;59918;51.280;7.950;2023-11-21T13:59:43;98066.25;;;9.76
72054;BMP280;59918;51.280;7.950;2023-11-21T14:02:08;98078.69;;;9.72
72054;BMP280;59918;51.280;7.950;2023-11-21T14:04:33;98082.25;;;9.71
72054;BMP280;59918;51.280;7.950;2023-11-21T14:06:58;98079.88;;;9.70
72054;BMP280;59918;51.280;7.950;2023-11-21T14:09:24;98090.13;;;9.70
72054;BMP280;59918;51.280;7.950;2023-11-21T14:11:53;98082.44;;;9.70
72054;BMP280;59918;51.280;7.950;2023-11-21T14:14:21;98082.63;;;9.68
72054;BMP280;59918;51.280;7.950;2023-11-21T14:16:46;98090.91;;;9.70
72054;BMP280;59918;51.280;7.950;2023-11-21T14:19:11;98085.00;;;9.70
72054;BMP280;59918;51.280;7.950;2023-11-21T14:21:37;98094.50;;;9.69
72054;BMP280;59918;51.280;7.950;2023-11-21T14:24:02;98089.34;;;9.69
72054;BMP280;59918;51.280;7.950;2023-11-21T14:26:27;98087.38;;;9.71
72054;BMP280;59918;51.280;7.950;2023-11-21T14:28:53;98095.88;;;9.72
72054;BMP280;59918;51.280;7.950;2023-11-21T14:31:18;98096.66;;;9.72
72054;BMP280;59918;51.280;7.950;2023-11-21T14:33:46;98095.09;;;9.71
72054;BMP280;59918;51.280;7.950;2023-11-21T14:36:11;98093.06;;;9.67
72054;BMP280;59918;51.280;7.950;2023-11-21T14:38:37;98094.06;;;9.66
72054;BMP280;59918;51.280;7.950;2023-11-21T14:41:02;98104.53;;;9.64
72054;BMP280;59918;51.280;7.950;2023-11-21T14:43:28;98106.50;;;9.62
72054;BMP280;59918;51.280;7.950;2023-11-21T14:45:53;98107.66;;;9.60
72054;BMP280;59918;51.280;7.950;2023-11-21T14:48:18;98112.19;;;9.58
72054;BMP280;59918;51.280;7.950;2023-11-21T14:50:43;98115.13;;;9.55
72054;BMP280;59918;51.280;7.950;2023-11-21T14:53:10;98113.56;;;9.54
72054;BMP280;59918;51.280;7.950;2023-11-21T14:55:35;98119.66;;;9.53
72054;BMP280;59918;51.280;7.950;2023-11-21T14:58:01;98125.19;;;9.50
72054;BMP280;59918;51.280;7.950;2023-11-21T15:00:26;98128.69;;;9.43
72054;BMP280;59918;51.280;7.950;2023-11-21T15:02:51;98133.81;;;9.36
72054;BMP280;59918;51.280;7.950;2023-11-21T15:05:16;98136.91;;;9.32
72054;BMP280;59918;51.280;7.950;2023-11-21T15:07:41;98140.81;;;9.28
72054;BMP280;59918;51.280;7.950;2023-11-21T15:10:07;98137.25;;;9.22
72054;BMP280;59918;51.280;7.950;2023-11-21T15:12:32;98147.72;;;9.21
72054;BMP280;59918;51.280;7.950;2023-11-21T15:14:57;98153.19;;;9.18
72054;BMP280;59918;51.280;7.950;2023-11-21T15:17:23;98157.94;;;9.14
72054;BMP280;59918;51.280;7.950;2023-11-21T15:19:48;98160.41;;;9.08
72054;BMP280;59918;51.280;7.950;2023-11-21T15:22:14;98170.47;;;9.03
72054;BMP280;59918;51.280;7.950;2023-11-21T15:24:39;98168.25;;;9.00
72054;BMP280;59918;51.280;7.950;2023-11-21T15:27:04;98164.47;;;8.96
72054;BMP280;59918;51.280;7.950;2023-11-21T15:29:29;98160.69;;;8.92
72054;BMP280;59918;51.280;7.950;2023-11-21T15:31:55;98172.91;;;8.90
72054;BMP280;59918;51.280;7.950;2023-11-21T15:34:20;98174.50;;;8.91
72054;BMP280;59918;51.280;7.950;2023-11-21T15:36:45;98177.25;;;8.90
72054;BMP280;59918;51.280;7.950;2023-11-21T15:39:10;98188.50;;;8.89
72054;BMP280;59918;51.280;7.950;2023-11-21T15:41:38;98196.97;;;8.89
72054;BMP280;59918;51.280;7.950;2023-11-21T15:44:07;98197.34;;;8.86
72054;BMP280;59918;51.280;7.950;2023-11-21T15:46:34;98199.06;;;8.79
72054;BMP280;59918;51.280;7.950;2023-11-21T15:48:59;98202.97;;;8.75
72054;BMP280;59918;51.280;7.950;2023-11-21T15:51:24;98196.78;;;8.70
72054;BMP280;59918;51.280;7.950;2023-11-21T15:53:52;98209.78;;;8.69
72054;BMP280;59918;51.280;7.950;2023-11-21T15:56:18;98211.91;;;8.65
72054;BMP280;59918;51.280;7.950;2023-11-21T15:58:43;98211.84;;;8.59
72054;BMP280;59918;51.280;7.950;2023-11-21T16:01:09;98213.81;;;8.57
72054;BMP280;59918;51.280;7.950;2023-11-21T16:03:34;98220.72;;;8.56
72054;BMP280;59918;51.280;7.950;2023-11-21T16:06:00;98236.09;;;8.56
72054;BMP280;59918;51.280;7.950;2023-11-21T16:08:25;98238.81;;;8.55
72054;BMP280;59918;51.280;7.950;2023-11-21T16:10:50;98242.38;;;8.54
72054;BMP280;59918;51.280;7.950;2023-11-21T16:13:15;98245.28;;;8.51
72054;BMP280;59918;51.280;7.950;2023-11-21T16:15:41;98247.41;;;8.47
72054;BMP280;59918;51.280;7.950;2023-11-21T16:18:07;98247.00;;;8.44
72054;BMP280;59918;51.280;7.950;2023-11-21T16:20:32;98256.03;;;8.40
72054;BMP280;59918;51.280;7.950;2023-11-21T16:22:58;98258.31;;;8.35
72054;BMP280;59918;51.280;7.950;2023-11-21T16:25:23;98264.59;;;8.33
72054;BMP280;59918;51.280;7.950;2023-11-21T16:27:48;98273.84;;;8.34
72054;BMP280;59918;51.280;7.950;2023-11-21T16:30:13;98271.28;;;8.34
72054;BMP280;59918;51.280;7.950;2023-11-21T16:32:39;98276.41;;;8.34
72054;BMP280;59918;51.280;7.950;2023-11-21T16:35:04;98290.06;;;8.34
72054;BMP280;59918;51.280;7.950;2023-11-21T16:37:30;98294.56;;;8.32
72054;BMP280;59918;51.280;7.950;2023-11-21T16:39:55;98287.22;;;8.29
72054;BMP280;59918;51.280;7.950;2023-11-21T16:42:20;98293.31;;;8.28
72054;BMP280;59918;51.280;7.950;2023-11-21T16:44:45;98301.19;;;8.27
72054;BMP280;59918;51.280;7.950;2023-11-21T16:47:11;98307.25;;;8.26
72054;BMP280;59918;51.280;7.950;2023-11-21T16:49:36;98308.59;;;8.22
72054;BMP280;59918;51.280;7.950;2023-11-21T16:52:02;98317.59;;;8.18
72054;BMP280;59918;51.280;7.950;2023-11-21T16:54:28;98329.97;;;8.14
72054;BMP280;59918;51.280;7.950;2023-11-21T16:56:53;98332.88;;;8.11
72054;BMP280;59918;51.280;7.950;2023-11-21T16:59:19;98335.13;;;8.06
72054;BMP280;59918;51.280;7.950;2023-11-21T17:01:44;98335.84;;;8.00
72054;BMP280;59918;51.280;7.950;2023-11-21T17:04:09;98327.91;;;7.96
72054;BMP280;59918;51.280;7.950;2023-11-21T17:06:34;98340.25;;;7.92
72054;BMP280;59918;51.280;7.950;2023-11-21T17:09:00;98343.16;;;7.89
72054;BMP280;59918;51.280;7.950;2023-11-21T17:11:25;98344.28;;;7.87
72054;BMP280;59918;51.280;7.950;2023-11-21T17:13:50;98356.66;;;7.83
72054;BMP280;59918;51.280;7.950;2023-11-21T17:16:16;98359.41;;;7.82
72054;BMP280;59918;51.280;7.950;2023-11-21T17:18:41;98356.38;;;7.78
72054;BMP280;59918;51.280;7.950;2023-11-21T17:21:06;98369.34;;;7.77
72054;BMP280;59918;51.280;7.950;2023-11-21T17:23:33;98378.97;;;7.75
72054;BMP280;59918;51.280;7.950;2023-11-21T17:25:58;98388.59;;;7.73
72054;BMP280;59918;51.280;7.950;2023-11-21T17:28:24;98382.84;;;7.71
72054;BMP280;59918;51.280;7.950;2023-11-21T17:30:49;98383.03;;;7.69
72054;BMP280;59918;51.280;7.950;2023-11-21T17:33:14;98401.28;;;7.66
72054;BMP280;59918;51.280;7.950;2023-11-21T17:35:39;98397.16;;;7.65
72054;BMP280;59918;51.280;7.950;2023-11-21T17:38:05;98399.88;;;7.64
72054;BMP280;59918;51.280;7.950;2023-11-21T17:40:30;98414.44;;;7.63
72054;BMP280;59918;51.280;7.950;2023-11-21T17:42:55;98416.81;;;7.65
72054;BMP280;59918;51.280;7.950;2023-11-21T17:45:20;98419.72;;;7.62
72054;BMP280;59918;51.280;7.950;2023-11-21T17:47:48;98421.50;;;7.62
72054;BMP280;59918;51.280;7.950;2023-11-21T17:50:13;98439.91;;;7.57
72054;BMP280;59918;51.280;7.950;2023-11-21T17:52:39;98438.66;;;7.53
72054;BMP280;59918;51.280;7.950;2023-11-21T17:55:05;98456.91;;;7.50
72054;BMP280;59918;51.280;7.950;2023-11-21T17:57:32;98449.22;;;7.50
72054;BMP280;59918;51.280;7.950;2023-11-21T17:59:57;98462.81;;;7.51
72054;BMP280;59918;51.280;7.950;2023-11-21T18:02:22;98457.84;;;7.49
72054;BMP280;59918;51.280;7.950;2023-11-21T18:04:47;98462.34;;;7.47
72054;BMP280;59918;51.280;7.950;2023-11-21T18:07:13;98464.91;;;7.47
72054;BMP280;59918;51.280;7.950;2023-11-21T18:09:38;98468.63;;;7.45
72054;BMP280;59918;51.280;7.950;2023-11-21T18:12:03;98462.06;;;7.42
72054;BMP280;59918;51.280;7.950;2023-11-21T18:14:29;98464.97;;;7.39
72054;BMP280;59918;51.280;7.950;2023-11-21T18:16:54;98473.00;;;7.36
72054;BMP280;59918;51.280;7.950;2023-11-21T18:19:19;98480.66;;;7.36
72054;BMP280;59918;51.280;7.950;2023-11-21T18:21:44;98484.78;;;7.37
72054;BMP280;59918;51.280;7.950;2023-11-21T18:24:10;98496.97;;;7.35
72054;BMP280;59918;51.280;7.950;2023-11-21T18:26:35;98497.75;;;7.36
72054;BMP280;59918;51.280;7.950;2023-11-21T18:29:01;98503.84;;;7.35
72054;BMP280;59918;51.280;7.950;2023-11-21T18:31:26;98505.94;;;7.31
72054;BMP280;59918;51.280;7.950;2023-11-21T18:33:52;98512.03;;;7.30
72054;BMP280;59918;51.280;7.950;2023-11-21T18:36:17;98511.41;;;7.28
72054;BMP280;59918;51.280;7.950;2023-11-21T18:38:42;98525.94;;;7.28
72054;BMP280;59918;51.280;7.950;2023-11-21T18:41:08;98525.94;;;7.28
72054;BMP280;59918;51.280;7.950;2023-11-21T18:43:33;98517.63;;;7.26